createdAt,value
2022-10-23T00:00:53.796Z,1007.60
2022-10-23T00:01:53.778Z,1007.59
2022-10-23T00:02:53.870Z,1007.59
2022-10-23T00:03:53.763Z,1007.54
2022-10-23T00:04:53.820Z,1007.52
2022-10-23T00:05:53.735Z,1007.52
2022-10-23T00:06:53.723Z,1007.50
2022-10-23T00:07:53.768Z,1007.49
2022-10-23T00:08:53.704Z,1007.47
2022-10-23T00:09:53.701Z,1007.44
2022-10-23T00:10:53.697Z,1007.38
2022-10-23T00:11:53.677Z,1007.40
2022-10-23T00:12:53.666Z,1007.40
2022-10-23T00:13:53.644Z,1007.42
2022-10-23T00:14:53.641Z,1007.39
2022-10-23T00:15:53.654Z,1007.35
2022-10-23T00:16:53.632Z,1007.36
2022-10-23T00:17:53.622Z,1007.33
2022-10-23T00:18:53.596Z,1007.36
2022-10-23T00:19:53.592Z,1007.35
2022-10-23T00:20:53.583Z,1007.37
2022-10-23T00:21:53.568Z,1007.36
2022-10-23T00:22:53.551Z,1007.42
2022-10-23T00:23:53.550Z,1007.41
2022-10-23T00:24:53.533Z,1007.42
2022-10-23T00:25:53.528Z,1007.45
2022-10-23T00:26:53.532Z,1007.48
2022-10-23T00:27:53.505Z,1007.52
2022-10-23T00:28:53.498Z,1007.49
2022-10-23T00:29:53.477Z,1007.47
2022-10-23T00:30:53.463Z,1007.48
2022-10-23T00:31:53.459Z,1007.42
2022-10-23T00:32:53.457Z,1007.44
2022-10-23T00:33:53.436Z,1007.45
2022-10-23T00:34:53.433Z,1007.40
2022-10-23T00:35:53.408Z,1007.40
2022-10-23T00:36:53.406Z,1007.43
2022-10-23T00:37:53.406Z,1007.41
2022-10-23T00:38:53.607Z,1007.42
2022-10-23T00:39:53.385Z,1007.38
2022-10-23T00:40:53.367Z,1007.36
2022-10-23T00:41:53.346Z,1007.32
2022-10-23T00:42:53.346Z,1007.28
2022-10-23T00:43:53.333Z,1007.30
2022-10-23T00:44:53.323Z,1007.30
2022-10-23T00:45:53.305Z,1007.32
2022-10-23T00:46:53.310Z,1007.32
2022-10-23T00:47:53.288Z,1007.34
2022-10-23T00:48:53.268Z,1007.38
2022-10-23T00:49:53.265Z,1007.42
2022-10-23T00:50:53.255Z,1007.44
2022-10-23T00:51:53.251Z,1007.45
2022-10-23T00:52:53.218Z,1007.42
2022-10-23T00:54:01.216Z,1007.39
2022-10-23T00:54:54.213Z,1007.32
2022-10-23T00:55:53.198Z,1007.30
2022-10-23T00:56:53.186Z,1007.30
2022-10-23T00:57:53.183Z,1007.28
2022-10-23T00:58:53.162Z,1007.29
2022-10-23T00:59:53.170Z,1007.31
2022-10-23T01:00:53.151Z,1007.30
2022-10-23T01:01:53.259Z,1007.34
2022-10-23T01:02:53.133Z,1007.37
2022-10-23T01:03:53.136Z,1007.39
2022-10-23T01:04:53.100Z,1007.37
2022-10-23T01:05:53.094Z,1007.32
2022-10-23T01:06:53.094Z,1007.37
2022-10-23T01:07:53.074Z,1007.34
2022-10-23T01:08:53.082Z,1007.36
2022-10-23T01:09:53.106Z,1007.36
2022-10-23T01:10:53.039Z,1007.38
2022-10-23T01:11:53.098Z,1007.35
2022-10-23T01:12:53.015Z,1007.38
2022-10-23T01:13:53.064Z,1007.36
2022-10-23T01:14:52.997Z,1007.35
2022-10-23T01:15:52.983Z,1007.34
2022-10-23T01:16:52.968Z,1007.30
2022-10-23T01:17:52.965Z,1007.27
2022-10-23T01:18:52.957Z,1007.25
2022-10-23T01:19:52.952Z,1007.20
2022-10-23T01:20:52.943Z,1007.23
2022-10-23T01:21:52.944Z,1007.18
2022-10-23T01:22:52.911Z,1007.22
2022-10-23T01:23:52.917Z,1007.22
2022-10-23T01:24:52.909Z,1007.19
2022-10-23T01:25:52.893Z,1007.29
2022-10-23T01:26:52.865Z,1007.26
2022-10-23T01:27:52.862Z,1007.31
2022-10-23T01:28:52.847Z,1007.28
2022-10-23T01:29:52.834Z,1007.30
2022-10-23T01:30:52.824Z,1007.29
2022-10-23T01:31:52.815Z,1007.28
2022-10-23T01:32:52.819Z,1007.30
2022-10-23T01:33:52.798Z,1007.28
2022-10-23T01:34:52.773Z,1007.27
2022-10-23T01:35:52.774Z,1007.27
2022-10-23T01:36:52.751Z,1007.28
2022-10-23T01:37:52.762Z,1007.24
2022-10-23T01:38:52.820Z,1007.26
2022-10-23T01:39:52.760Z,1007.25
2022-10-23T01:40:53.199Z,1007.24
2022-10-23T01:41:52.723Z,1007.23
2022-10-23T01:42:52.702Z,1007.24
2022-10-23T01:43:52.685Z,1007.28
2022-10-23T01:44:52.730Z,1007.29
2022-10-23T01:45:52.706Z,1007.32
2022-10-23T01:46:52.657Z,1007.29
2022-10-23T01:47:52.649Z,1007.24
2022-10-23T01:48:52.640Z,1007.23
2022-10-23T01:49:52.610Z,1007.19
2022-10-23T01:50:52.616Z,1007.21
2022-10-23T01:51:52.602Z,1007.16
2022-10-23T01:52:52.583Z,1007.16
2022-10-23T01:53:52.606Z,1007.17
2022-10-23T01:54:52.586Z,1007.19
2022-10-23T01:55:52.562Z,1007.20
2022-10-23T01:56:52.548Z,1007.19
2022-10-23T01:57:52.559Z,1007.21
2022-10-23T01:58:52.521Z,1007.24
2022-10-23T01:59:52.511Z,1007.24
2022-10-23T02:00:52.507Z,1007.29
2022-10-23T02:01:52.632Z,1007.26
2022-10-23T02:02:52.490Z,1007.22
2022-10-23T02:03:52.540Z,1007.24
2022-10-23T02:04:52.462Z,1007.23
2022-10-23T02:05:52.457Z,1007.26
2022-10-23T02:06:52.462Z,1007.25
2022-10-23T02:07:52.425Z,1007.22
2022-10-23T02:08:52.421Z,1007.29
2022-10-23T02:09:52.402Z,1007.23
2022-10-23T02:10:52.399Z,1007.22
2022-10-23T02:11:52.552Z,1007.19
2022-10-23T02:12:52.392Z,1007.17
2022-10-23T02:13:52.367Z,1007.19
2022-10-23T02:14:52.353Z,1007.16
2022-10-23T02:15:52.346Z,1007.14
2022-10-23T02:16:52.335Z,1007.06
2022-10-23T02:17:52.325Z,1007.10
2022-10-23T02:18:52.312Z,1007.10
2022-10-23T02:19:52.677Z,1007.08
2022-10-23T02:20:52.302Z,1007.07
2022-10-23T02:21:52.281Z,1007.07
2022-10-23T02:22:52.274Z,1007.04
2022-10-23T02:23:53.844Z,1007.02
2022-10-23T02:24:52.269Z,1006.97
2022-10-23T02:25:52.240Z,1006.96
2022-10-23T02:26:52.237Z,1006.97
2022-10-23T02:27:52.227Z,1006.97
2022-10-23T02:28:52.277Z,1006.93
2022-10-23T02:29:52.184Z,1006.93
2022-10-23T02:30:52.187Z,1006.89
2022-10-23T02:31:52.186Z,1006.91
2022-10-23T02:32:52.163Z,1006.96
2022-10-23T02:33:52.145Z,1006.94
2022-10-23T02:34:52.140Z,1006.92
2022-10-23T02:35:52.136Z,1006.91
2022-10-23T02:36:52.113Z,1006.89
2022-10-23T02:37:52.114Z,1006.90
2022-10-23T02:38:52.104Z,1006.88
2022-10-23T02:39:52.095Z,1006.87
2022-10-23T02:40:52.089Z,1006.80
2022-10-23T02:41:52.072Z,1006.81
2022-10-23T02:42:52.253Z,1006.80
2022-10-23T02:43:52.045Z,1006.85
2022-10-23T02:44:52.036Z,1006.82
2022-10-23T02:45:52.030Z,1006.80
2022-10-23T02:46:52.018Z,1006.79
2022-10-23T02:47:51.995Z,1006.75
2022-10-23T02:48:51.995Z,1006.79
2022-10-23T02:49:51.976Z,1006.77
2022-10-23T02:50:51.972Z,1006.78
2022-10-23T02:51:51.974Z,1006.77
2022-10-23T02:52:51.955Z,1006.78
2022-10-23T02:53:51.985Z,1006.76
2022-10-23T02:54:51.942Z,1006.71
2022-10-23T02:55:51.918Z,1006.72
2022-10-23T02:56:51.920Z,1006.70
2022-10-23T02:57:51.895Z,1006.67
2022-10-23T02:58:51.871Z,1006.69
2022-10-23T02:59:51.873Z,1006.68
2022-10-23T03:00:51.863Z,1006.67
2022-10-23T03:01:51.954Z,1006.69
2022-10-23T03:02:51.836Z,1006.72
2022-10-23T03:03:51.837Z,1006.66
2022-10-23T03:04:51.823Z,1006.63
2022-10-23T03:05:51.803Z,1006.60
2022-10-23T03:06:51.806Z,1006.59
2022-10-23T03:07:51.776Z,1006.53
2022-10-23T03:08:51.787Z,1006.50
2022-10-23T03:09:51.773Z,1006.54
2022-10-23T03:10:51.752Z,1006.49
2022-10-23T03:11:51.736Z,1006.50
2022-10-23T03:12:51.737Z,1006.51
2022-10-23T03:13:51.743Z,1006.48
2022-10-23T03:14:51.714Z,1006.50
2022-10-23T03:15:51.690Z,1006.46
2022-10-23T03:16:51.712Z,1006.46
2022-10-23T03:17:51.696Z,1006.44
2022-10-23T03:18:51.693Z,1006.43
2022-10-23T03:19:51.666Z,1006.44
2022-10-23T03:20:51.664Z,1006.40
2022-10-23T03:21:51.657Z,1006.43
2022-10-23T03:22:51.623Z,1006.43
2022-10-23T03:23:51.604Z,1006.38
2022-10-23T03:24:51.609Z,1006.37
2022-10-23T03:25:51.808Z,1006.36
2022-10-23T03:26:51.593Z,1006.41
2022-10-23T03:27:51.660Z,1006.42
2022-10-23T03:28:51.560Z,1006.40
2022-10-23T03:29:51.546Z,1006.42
2022-10-23T03:30:51.547Z,1006.44
2022-10-23T03:31:52.204Z,1006.42
2022-10-23T03:32:51.525Z,1006.40
2022-10-23T03:33:51.545Z,1006.41
2022-10-23T03:34:51.508Z,1006.40
2022-10-23T03:35:51.483Z,1006.41
2022-10-23T03:36:51.488Z,1006.40
2022-10-23T03:37:51.466Z,1006.40
2022-10-23T03:38:51.461Z,1006.38
2022-10-23T03:39:51.447Z,1006.45
2022-10-23T03:40:51.439Z,1006.41
2022-10-23T03:41:51.419Z,1006.41
2022-10-23T03:42:51.424Z,1006.44
2022-10-23T03:43:51.452Z,1006.40
2022-10-23T03:44:51.526Z,1006.38
2022-10-23T03:45:51.393Z,1006.38
2022-10-23T03:46:51.364Z,1006.41
2022-10-23T03:47:51.366Z,1006.45
2022-10-23T03:48:51.362Z,1006.48
2022-10-23T03:49:51.327Z,1006.47
2022-10-23T03:50:51.335Z,1006.53
2022-10-23T03:51:51.315Z,1006.53
2022-10-23T03:52:51.307Z,1006.48
2022-10-23T03:53:51.308Z,1006.50
2022-10-23T03:54:51.283Z,1006.47
2022-10-23T03:55:51.275Z,1006.45
2022-10-23T03:56:53.701Z,1006.47
2022-10-23T03:57:52.249Z,1006.48
2022-10-23T03:58:51.252Z,1006.44
2022-10-23T03:59:51.233Z,1006.50
2022-10-23T04:00:51.226Z,1006.50
2022-10-23T04:01:51.375Z,1006.53
2022-10-23T04:02:51.207Z,1006.53
2022-10-23T04:03:51.254Z,1006.48
2022-10-23T04:04:51.183Z,1006.47
2022-10-23T04:05:52.328Z,1006.42
2022-10-23T04:06:51.167Z,1006.41
2022-10-23T04:07:51.149Z,1006.41
2022-10-23T04:08:51.145Z,1006.32
2022-10-23T04:09:51.116Z,1006.32
2022-10-23T04:10:51.111Z,1006.28
2022-10-23T04:11:51.102Z,1006.28
2022-10-23T04:12:51.093Z,1006.25
2022-10-23T04:13:51.094Z,1006.27
2022-10-23T04:14:51.081Z,1006.27
2022-10-23T04:15:51.143Z,1006.28
2022-10-23T04:16:51.064Z,1006.27
2022-10-23T04:17:51.035Z,1006.26
2022-10-23T04:18:51.035Z,1006.22
2022-10-23T04:19:51.025Z,1006.21
2022-10-23T04:20:51.023Z,1006.26
2022-10-23T04:21:51.003Z,1006.27
2022-10-23T04:22:50.994Z,1006.31
2022-10-23T04:23:50.996Z,1006.29
2022-10-23T04:24:50.962Z,1006.27
2022-10-23T04:25:50.977Z,1006.26
2022-10-23T04:26:50.954Z,1006.32
2022-10-23T04:27:50.930Z,1006.32
2022-10-23T04:28:50.921Z,1006.31
2022-10-23T04:29:53.244Z,1006.31
2022-10-23T04:30:50.893Z,1006.24
2022-10-23T04:31:50.889Z,1006.25
2022-10-23T04:32:50.880Z,1006.25
2022-10-23T04:33:50.866Z,1006.27
2022-10-23T04:34:50.853Z,1006.25
2022-10-23T04:35:50.854Z,1006.28
2022-10-23T04:36:50.844Z,1006.22
2022-10-23T04:37:50.826Z,1006.20
2022-10-23T04:38:50.833Z,1006.23
2022-10-23T04:39:50.804Z,1006.24
2022-10-23T04:40:50.799Z,1006.19
2022-10-23T04:41:50.785Z,1006.19
2022-10-23T04:42:50.777Z,1006.19
2022-10-23T04:43:50.772Z,1006.20
2022-10-23T04:44:50.768Z,1006.22
2022-10-23T04:45:50.747Z,1006.20
2022-10-23T04:46:50.968Z,1006.21
2022-10-23T04:47:50.727Z,1006.20
2022-10-23T04:48:50.718Z,1006.15
2022-10-23T04:49:50.700Z,1006.16
2022-10-23T04:50:50.698Z,1006.16
2022-10-23T04:51:50.676Z,1006.14
2022-10-23T04:52:50.672Z,1006.13
2022-10-23T04:53:50.664Z,1006.10
2022-10-23T04:54:50.654Z,1006.12
2022-10-23T04:55:50.636Z,1006.12
2022-10-23T04:56:50.627Z,1006.12
2022-10-23T04:57:50.618Z,1006.11
2022-10-23T04:58:50.620Z,1006.09
2022-10-23T04:59:50.585Z,1006.08
2022-10-23T05:00:50.624Z,1006.05
2022-10-23T05:01:50.635Z,1006.05
2022-10-23T05:02:50.564Z,1006.02
2022-10-23T05:03:50.570Z,1006.01
2022-10-23T05:04:50.547Z,1006.00
2022-10-23T05:05:50.544Z,1006.02
2022-10-23T05:06:50.582Z,1006.04
2022-10-23T05:07:50.519Z,1006.03
2022-10-23T05:08:50.501Z,1006.02
2022-10-23T05:09:50.491Z,1006.03
2022-10-23T05:10:50.492Z,1006.00
2022-10-23T05:11:50.454Z,1005.93
2022-10-23T05:12:50.465Z,1005.95
2022-10-23T05:13:50.454Z,1005.98
2022-10-23T05:14:50.452Z,1006.02
2022-10-23T05:15:50.429Z,1006.03
2022-10-23T05:16:50.417Z,1006.05
2022-10-23T05:17:50.451Z,1006.07
2022-10-23T05:18:50.402Z,1006.03
2022-10-23T05:19:50.374Z,1006.05
2022-10-23T05:20:50.379Z,1006.02
2022-10-23T05:21:50.380Z,1006.00
2022-10-23T05:22:50.361Z,1006.04
2022-10-23T05:23:50.505Z,1006.00
2022-10-23T05:24:50.769Z,1006.02
2022-10-23T05:25:50.330Z,1005.95
2022-10-23T05:26:50.315Z,1006.01
2022-10-23T05:27:50.318Z,1005.99
2022-10-23T05:28:50.292Z,1005.97
2022-10-23T05:29:50.287Z,1005.94
2022-10-23T05:30:50.270Z,1005.92
2022-10-23T05:31:50.255Z,1005.89
2022-10-23T05:32:50.247Z,1005.92
2022-10-23T05:33:50.235Z,1005.86
2022-10-23T05:34:50.244Z,1005.89
2022-10-23T05:35:50.216Z,1005.86
2022-10-23T05:36:50.213Z,1005.81
2022-10-23T05:37:50.205Z,1005.84
2022-10-23T05:38:50.178Z,1005.78
2022-10-23T05:39:50.169Z,1005.80
2022-10-23T05:40:50.161Z,1005.81
2022-10-23T05:41:50.142Z,1005.72
2022-10-23T05:42:50.154Z,1005.77
2022-10-23T05:43:50.129Z,1005.74
2022-10-23T05:44:50.135Z,1005.72
2022-10-23T05:45:50.116Z,1005.70
2022-10-23T05:46:50.107Z,1005.74
2022-10-23T05:47:50.087Z,1005.72
2022-10-23T05:48:50.300Z,1005.71
2022-10-23T05:49:50.056Z,1005.73
2022-10-23T05:50:50.061Z,1005.69
2022-10-23T05:51:50.050Z,1005.67
2022-10-23T05:52:50.040Z,1005.64
2022-10-23T05:53:50.026Z,1005.60
2022-10-23T05:54:50.012Z,1005.63
2022-10-23T05:55:50.002Z,1005.60
2022-10-23T05:56:49.999Z,1005.60
2022-10-23T05:57:49.980Z,1005.60
2022-10-23T05:58:49.979Z,1005.54
2022-10-23T05:59:49.951Z,1005.52
2022-10-23T06:00:49.952Z,1005.52
2022-10-23T06:01:50.057Z,1005.52
2022-10-23T06:02:49.920Z,1005.53
2022-10-23T06:03:49.942Z,1005.51
2022-10-23T06:04:49.902Z,1005.53
2022-10-23T06:05:49.898Z,1005.56
2022-10-23T06:06:49.879Z,1005.55
2022-10-23T06:07:49.875Z,1005.55
2022-10-23T06:08:49.866Z,1005.57
2022-10-23T06:09:49.849Z,1005.51
2022-10-23T06:10:49.833Z,1005.51
2022-10-23T06:11:49.956Z,1005.49
2022-10-23T06:12:49.824Z,1005.48
2022-10-23T06:13:50.412Z,1005.51
2022-10-23T06:14:49.794Z,1005.50
2022-10-23T06:15:49.795Z,1005.51
2022-10-23T06:16:49.775Z,1005.47
2022-10-23T06:17:49.792Z,1005.49
2022-10-23T06:18:49.769Z,1005.49
2022-10-23T06:19:49.915Z,1005.44
2022-10-23T06:20:49.724Z,1005.36
2022-10-23T06:21:49.732Z,1005.38
2022-10-23T06:22:49.722Z,1005.36
2022-10-23T06:23:49.764Z,1005.33
2022-10-23T06:24:49.695Z,1005.29
2022-10-23T06:25:49.690Z,1005.33
2022-10-23T06:26:49.677Z,1005.37
2022-10-23T06:27:49.678Z,1005.38
2022-10-23T06:28:49.655Z,1005.35
2022-10-23T06:29:49.652Z,1005.34
2022-10-23T06:30:49.622Z,1005.32
2022-10-23T06:31:49.621Z,1005.33
2022-10-23T06:32:49.613Z,1005.30
2022-10-23T06:33:49.584Z,1005.27
2022-10-23T06:34:49.598Z,1005.26
2022-10-23T06:35:49.595Z,1005.28
2022-10-23T06:36:49.562Z,1005.23
2022-10-23T06:37:49.578Z,1005.27
2022-10-23T06:38:49.692Z,1005.28
2022-10-23T06:39:49.531Z,1005.28
2022-10-23T06:40:49.523Z,1005.29
2022-10-23T06:41:49.514Z,1005.33
2022-10-23T06:42:49.488Z,1005.35
2022-10-23T06:43:49.505Z,1005.35
2022-10-23T06:44:49.482Z,1005.35
2022-10-23T06:45:49.472Z,1005.31
2022-10-23T06:46:49.454Z,1005.33
2022-10-23T06:47:49.438Z,1005.30
2022-10-23T06:48:49.604Z,1005.34
2022-10-23T06:49:49.432Z,1005.30
2022-10-23T06:50:49.624Z,1005.23
2022-10-23T06:51:49.401Z,1005.24
2022-10-23T06:52:49.379Z,1005.27
2022-10-23T06:53:49.382Z,1005.22
2022-10-23T06:54:49.382Z,1005.24
2022-10-23T06:55:52.859Z,1005.23
2022-10-23T06:56:50.337Z,1005.20
2022-10-23T06:57:49.335Z,1005.19
2022-10-23T06:58:49.322Z,1005.19
2022-10-23T06:59:49.319Z,1005.23
2022-10-23T07:00:49.558Z,1005.26
2022-10-23T07:01:49.485Z,1005.25
2022-10-23T07:02:49.282Z,1005.29
2022-10-23T07:03:49.288Z,1005.33
2022-10-23T07:04:49.268Z,1005.32
2022-10-23T07:05:49.264Z,1005.33
2022-10-23T07:06:49.240Z,1005.34
2022-10-23T07:07:49.217Z,1005.31
2022-10-23T07:08:49.218Z,1005.34
2022-10-23T07:09:49.224Z,1005.34
2022-10-23T07:10:49.191Z,1005.31
2022-10-23T07:11:49.205Z,1005.35
2022-10-23T07:12:49.184Z,1005.33
2022-10-23T07:13:49.169Z,1005.39
2022-10-23T07:14:49.162Z,1005.37
2022-10-23T07:15:49.140Z,1005.42
2022-10-23T07:16:49.136Z,1005.39
2022-10-23T07:17:49.134Z,1005.42
2022-10-23T07:18:49.114Z,1005.35
2022-10-23T07:19:49.128Z,1005.34
2022-10-23T07:20:49.088Z,1005.34
2022-10-23T07:21:49.182Z,1005.32
2022-10-23T07:22:49.079Z,1005.29
2022-10-23T07:23:49.049Z,1005.34
2022-10-23T07:24:49.042Z,1005.40
2022-10-23T07:25:49.050Z,1005.40
2022-10-23T07:27:49.009Z,1005.31
2022-10-23T07:28:49.000Z,1005.37
2022-10-23T07:29:48.989Z,1005.33
2022-10-23T07:30:48.978Z,1005.35
2022-10-23T07:31:48.973Z,1005.37
2022-10-23T07:32:48.995Z,1005.39
2022-10-23T07:33:48.971Z,1005.37
2022-10-23T07:34:49.905Z,1005.37
2022-10-23T07:35:49.015Z,1005.38
2022-10-23T07:36:49.040Z,1005.38
2022-10-23T07:37:48.924Z,1005.41
2022-10-23T07:38:48.922Z,1005.36
2022-10-23T07:39:49.144Z,1005.37
2022-10-23T07:40:49.156Z,1005.32
2022-10-23T07:41:48.876Z,1005.30
2022-10-23T07:42:48.876Z,1005.32
2022-10-23T07:43:49.221Z,1005.32
2022-10-23T07:44:48.832Z,1005.30
2022-10-23T07:45:48.838Z,1005.30
2022-10-23T07:46:48.810Z,1005.32
2022-10-23T07:47:48.827Z,1005.34
2022-10-23T07:48:48.792Z,1005.25
2022-10-23T07:49:48.960Z,1005.20
2022-10-23T07:50:48.784Z,1005.15
2022-10-23T07:51:51.347Z,1005.17
2022-10-23T07:52:48.833Z,1005.13
2022-10-23T07:53:48.743Z,1005.09
2022-10-23T07:54:48.765Z,1005.10
2022-10-23T07:55:48.724Z,1005.10
2022-10-23T07:56:48.697Z,1005.08
2022-10-23T07:57:48.709Z,1005.10
2022-10-23T07:58:48.709Z,1005.06
2022-10-23T07:59:49.075Z,1005.03
2022-10-23T08:00:48.698Z,1005.01
2022-10-23T08:01:51.463Z,1005.03
2022-10-23T08:02:48.632Z,1005.03
2022-10-23T08:03:48.642Z,1005.07
2022-10-23T08:04:48.636Z,1005.07
2022-10-23T08:05:48.638Z,1005.11
2022-10-23T08:06:48.593Z,1004.97
2022-10-23T08:07:48.594Z,1005.05
2022-10-23T08:08:48.725Z,1005.02
2022-10-23T08:09:49.255Z,1005.08
2022-10-23T08:10:48.567Z,1005.06
2022-10-23T08:11:48.548Z,1005.06
2022-10-23T08:12:48.554Z,1005.09
2022-10-23T08:13:48.534Z,1005.10
2022-10-23T08:14:48.527Z,1005.09
2022-10-23T08:15:48.507Z,1005.10
2022-10-23T08:16:48.592Z,1005.04
2022-10-23T08:17:48.502Z,1005.12
2022-10-23T08:18:48.486Z,1005.07
2022-10-23T08:19:48.471Z,1005.02
2022-10-23T08:20:48.579Z,1005.03
2022-10-23T08:21:48.479Z,1005.00
2022-10-23T08:22:48.424Z,1004.94
2022-10-23T08:23:48.462Z,1004.85
2022-10-23T08:24:48.486Z,1004.91
2022-10-23T08:25:48.404Z,1004.83
2022-10-23T08:26:48.399Z,1004.84
2022-10-23T08:27:50.397Z,1004.80
2022-10-23T08:28:48.377Z,1004.82
2022-10-23T08:29:48.365Z,1004.83
2022-10-23T08:30:48.343Z,1004.83
2022-10-23T08:31:48.355Z,1004.84
2022-10-23T08:32:48.311Z,1004.77
2022-10-23T08:34:48.737Z,1004.75
2022-10-23T08:35:48.830Z,1004.78
2022-10-23T08:36:48.270Z,1004.75
2022-10-23T08:37:48.281Z,1004.74
2022-10-23T08:38:48.279Z,1004.73
2022-10-23T08:39:51.318Z,1004.74
2022-10-23T08:40:48.252Z,1004.75
2022-10-23T08:41:48.225Z,1004.71
2022-10-23T08:42:48.213Z,1004.78
2022-10-23T08:43:48.202Z,1004.73
2022-10-23T08:44:48.201Z,1004.74
2022-10-23T08:45:48.595Z,1004.77
2022-10-23T08:46:48.631Z,1004.78
2022-10-23T08:47:48.167Z,1004.79
2022-10-23T08:48:48.179Z,1004.77
2022-10-23T08:49:48.151Z,1004.77
2022-10-23T08:50:48.126Z,1004.79
2022-10-23T08:51:48.232Z,1004.81
2022-10-23T08:52:48.103Z,1004.84
2022-10-23T08:53:48.104Z,1004.82
2022-10-23T08:54:48.454Z,1004.82
2022-10-23T08:55:48.072Z,1004.84
2022-10-23T08:56:48.063Z,1004.80
2022-10-23T08:57:48.202Z,1004.76
2022-10-23T08:58:48.067Z,1004.75
2022-10-23T08:59:48.037Z,1004.70
2022-10-23T09:00:48.128Z,1004.72
2022-10-23T09:01:48.194Z,1004.70
2022-10-23T09:02:48.021Z,1004.69
2022-10-23T09:03:48.001Z,1004.70
2022-10-23T09:04:47.981Z,1004.67
2022-10-23T09:05:47.992Z,1004.64
2022-10-23T09:06:47.954Z,1004.65
2022-10-23T09:07:47.955Z,1004.67
2022-10-23T09:08:47.966Z,1004.63
2022-10-23T09:09:47.922Z,1004.64
2022-10-23T09:10:50.662Z,1004.59
2022-10-23T09:11:48.167Z,1004.57
2022-10-23T09:12:47.875Z,1004.59
2022-10-23T09:13:47.881Z,1004.57
2022-10-23T09:14:47.862Z,1004.59
2022-10-23T09:15:47.868Z,1004.60
2022-10-23T09:16:47.845Z,1004.58
2022-10-23T09:17:48.224Z,1004.60
2022-10-23T09:18:47.811Z,1004.61
2022-10-23T09:19:47.814Z,1004.59
2022-10-23T09:20:47.823Z,1004.58
2022-10-23T09:21:47.805Z,1004.52
2022-10-23T09:22:47.938Z,1004.45
2022-10-23T09:23:47.785Z,1004.45
2022-10-23T09:24:52.930Z,1004.41
2022-10-23T09:25:49.514Z,1004.41
2022-10-23T09:26:47.827Z,1004.37
2022-10-23T09:27:49.625Z,1004.40
2022-10-23T09:28:47.878Z,1004.43
2022-10-23T09:29:47.893Z,1004.36
2022-10-23T09:30:47.710Z,1004.41
2022-10-23T09:31:47.739Z,1004.41
2022-10-23T09:32:47.910Z,1004.39
2022-10-23T09:33:47.699Z,1004.40
2022-10-23T09:34:47.665Z,1004.36
2022-10-23T09:35:47.848Z,1004.31
2022-10-23T09:36:47.890Z,1004.27
2022-10-23T09:37:48.291Z,1004.29
2022-10-23T09:38:47.631Z,1004.20
2022-10-23T09:39:47.765Z,1004.19
2022-10-23T09:40:47.597Z,1004.18
2022-10-23T09:41:47.660Z,1004.24
2022-10-23T09:42:47.810Z,1004.18
2022-10-23T09:43:47.748Z,1004.15
2022-10-23T09:44:47.959Z,1004.13
2022-10-23T09:45:47.557Z,1004.18
2022-10-23T09:46:47.640Z,1004.15
2022-10-23T09:47:47.681Z,1004.12
2022-10-23T09:48:47.515Z,1004.09
2022-10-23T09:49:47.648Z,1004.15
2022-10-23T09:50:47.745Z,1004.14
2022-10-23T09:51:47.489Z,1004.15
2022-10-23T09:52:47.676Z,1004.17
2022-10-23T09:53:47.874Z,1004.07
2022-10-23T09:54:47.920Z,1004.06
2022-10-23T09:55:48.017Z,1004.03
2022-10-23T09:57:47.816Z,1003.93
2022-10-23T09:58:47.608Z,1003.91
2022-10-23T09:59:47.417Z,1003.94
2022-10-23T10:00:50.166Z,1003.93
2022-10-23T10:01:48.856Z,1003.84
2022-10-23T10:02:47.461Z,1003.85
2022-10-23T10:03:47.401Z,1003.87
2022-10-23T10:04:47.448Z,1003.85
2022-10-23T10:05:47.379Z,1003.84
2022-10-23T10:06:47.352Z,1003.81
2022-10-23T10:07:47.316Z,1003.81
2022-10-23T10:08:47.364Z,1003.72
2022-10-23T10:09:47.404Z,1003.77
2022-10-23T10:10:47.261Z,1003.73
2022-10-23T10:11:47.281Z,1003.71
2022-10-23T10:12:47.266Z,1003.72
2022-10-23T10:13:47.255Z,1003.71
2022-10-23T10:14:47.233Z,1003.64
2022-10-23T10:15:47.234Z,1003.68
2022-10-23T10:16:47.219Z,1003.72
2022-10-23T10:17:47.232Z,1003.72
2022-10-23T10:18:47.248Z,1003.72
2022-10-23T10:19:47.240Z,1003.75
2022-10-23T10:20:47.170Z,1003.77
2022-10-23T10:21:47.233Z,1003.70
2022-10-23T10:22:47.238Z,1003.68
2022-10-23T10:23:47.231Z,1003.72
2022-10-23T10:24:47.230Z,1003.75
2022-10-23T10:25:52.017Z,1003.69
2022-10-23T10:26:48.383Z,1003.63
2022-10-23T10:27:47.224Z,1003.62
2022-10-23T10:28:47.075Z,1003.57
2022-10-23T10:29:47.115Z,1003.59
2022-10-23T10:30:47.056Z,1003.56
2022-10-23T10:31:50.685Z,1003.62
2022-10-23T10:32:48.148Z,1003.59
2022-10-23T10:33:47.225Z,1003.52
2022-10-23T10:34:47.136Z,1003.57
2022-10-23T10:35:47.367Z,1003.57
2022-10-23T10:36:47.366Z,1003.52
2022-10-23T10:37:49.371Z,1003.52
2022-10-23T10:38:46.981Z,1003.53
2022-10-23T10:39:46.981Z,1003.53
2022-10-23T10:40:47.002Z,1003.46
2022-10-23T10:41:46.989Z,1003.46
2022-10-23T10:42:47.216Z,1003.41
2022-10-23T10:43:47.006Z,1003.40
2022-10-23T10:44:47.013Z,1003.43
2022-10-23T10:45:47.013Z,1003.45
2022-10-23T10:46:47.045Z,1003.38
2022-10-23T10:47:47.026Z,1003.35
2022-10-23T10:48:46.886Z,1003.32
2022-10-23T10:49:46.871Z,1003.33
2022-10-23T10:50:46.863Z,1003.29
2022-10-23T10:51:46.865Z,1003.26
2022-10-23T10:52:49.250Z,1003.28
2022-10-23T10:53:46.867Z,1003.28
2022-10-23T10:54:46.882Z,1003.30
2022-10-23T10:55:46.885Z,1003.28
2022-10-23T10:56:46.901Z,1003.31
2022-10-23T10:57:47.080Z,1003.32
2022-10-23T10:58:46.893Z,1003.31
2022-10-23T10:59:46.739Z,1003.32
2022-10-23T11:00:46.772Z,1003.32
2022-10-23T11:01:47.019Z,1003.29
2022-10-23T11:02:46.923Z,1003.26
2022-10-23T11:03:46.732Z,1003.24
2022-10-23T11:04:46.946Z,1003.19
2022-10-23T11:05:46.998Z,1003.13
2022-10-23T11:06:46.741Z,1003.12
2022-10-23T11:07:46.970Z,1003.14
2022-10-23T11:08:57.644Z,1003.10
2022-10-23T11:09:47.780Z,1003.12
2022-10-23T11:10:46.776Z,1003.13
2022-10-23T11:11:46.592Z,1003.10
2022-10-23T11:12:46.612Z,1003.12
2022-10-23T11:13:46.600Z,1003.09
2022-10-23T11:14:46.611Z,1003.00
2022-10-23T11:15:46.677Z,1003.01
2022-10-23T11:16:46.569Z,1002.96
2022-10-23T11:17:46.672Z,1002.91
2022-10-23T11:18:46.625Z,1002.86
2022-10-23T11:19:46.622Z,1002.93
2022-10-23T11:20:46.642Z,1002.83
2022-10-23T11:21:46.643Z,1002.84
2022-10-23T11:22:46.817Z,1002.83
2022-10-23T11:23:46.480Z,1002.87
2022-10-23T11:24:49.096Z,1002.84
2022-10-23T11:25:46.680Z,1002.84
2022-10-23T11:26:46.473Z,1002.83
2022-10-23T11:27:46.645Z,1002.80
2022-10-23T11:28:46.688Z,1002.81
2022-10-23T11:29:46.485Z,1002.79
2022-10-23T11:30:46.497Z,1002.79
2022-10-23T11:31:46.505Z,1002.74
2022-10-23T11:32:46.507Z,1002.76
2022-10-23T11:33:46.518Z,1002.75
2022-10-23T11:34:46.525Z,1002.70
2022-10-23T11:35:46.342Z,1002.64
2022-10-23T11:36:46.398Z,1002.61
2022-10-23T11:37:46.508Z,1002.57
2022-10-23T11:38:46.345Z,1002.50
2022-10-23T11:39:46.347Z,1002.45
2022-10-23T11:40:46.433Z,1002.41
2022-10-23T11:41:46.365Z,1002.33
2022-10-23T11:42:46.614Z,1002.38
2022-10-23T11:43:46.375Z,1002.37
2022-10-23T11:44:46.254Z,1002.32
2022-10-23T11:45:46.249Z,1002.32
2022-10-23T11:46:46.342Z,1002.29
2022-10-23T11:47:46.233Z,1002.29
2022-10-23T11:48:46.211Z,1002.27
2022-10-23T11:49:46.205Z,1002.29
2022-10-23T11:50:46.214Z,1002.27
2022-10-23T11:51:46.176Z,1002.29
2022-10-23T11:52:56.201Z,1002.24
2022-10-23T11:53:47.155Z,1002.25
2022-10-23T11:54:46.149Z,1002.25
2022-10-23T11:55:46.214Z,1002.20
2022-10-23T11:56:46.136Z,1002.18
2022-10-23T11:57:46.108Z,1002.21
2022-10-23T11:58:46.098Z,1002.27
2022-10-23T11:59:46.382Z,1002.20
2022-10-23T12:00:46.383Z,1002.21
2022-10-23T12:01:46.488Z,1002.13
2022-10-23T12:02:46.798Z,1002.14
2022-10-23T12:03:46.414Z,1002.14
2022-10-23T12:04:46.022Z,1002.16
2022-10-23T12:05:46.063Z,1002.18
2022-10-23T12:06:46.024Z,1002.18
2022-10-23T12:07:46.342Z,1002.16
2022-10-23T12:08:46.030Z,1002.18